Time;durP1;ratioP1;P1;durP2;ratioP2;P2;SDS_P1;SDS_P2;PMS_P1;PMS_P2;Temp;Humidity;BMP_temperature;BMP_pressure;BME280_temperature;BME280_humidity;BME280_pressure;Samples;Min_cycle;Max_cycle;Signal;HPM_P1;HPM_P2
2023/01/18 00:00:20;;;;;;;6.77;1.50;;;;;;;13.37;75.64;92995.25;5024677;28;20301;-77
2023/01/18 00:02:48;;;;;;;2.43;1.30;;;;;;;13.50;74.79;92965.91;5027708;28;20190;-78
2023/01/18 00:05:14;;;;;;;3.23;1.20;;;;;;;13.51;75.05;92966.66;5024601;28;20641;-77
2023/01/18 00:07:41;;;;;;;3.20;1.20;;;;;;;13.60;73.95;92954.56;5025390;28;20202;-77
2023/01/18 00:10:10;;;;;;;2.57;1.10;;;;;;;13.59;73.85;92961.59;5026037;28;20693;-77
2023/01/18 00:12:37;;;;;;;2.43;1.30;;;;;;;13.71;73.49;92947.41;5025260;28;20195;-77
2023/01/18 00:15:04;;;;;;;1.53;1.27;;;;;;;13.73;73.05;92958.34;5025066;28;20195;-78
2023/01/18 00:17:31;;;;;;;1.23;1.10;;;;;;;13.77;72.95;92998.50;5026959;28;20238;-77
2023/01/18 00:19:58;;;;;;;6.73;1.57;;;;;;;13.71;73.36;92950.78;5024952;28;20573;-78
2023/01/18 00:22:25;;;;;;;6.23;1.47;;;;;;;13.82;73.42;92935.78;5025393;28;20184;-77
2023/01/18 00:24:51;;;;;;;3.77;1.20;;;;;;;13.84;73.13;92952.72;5026098;28;20199;-76
2023/01/18 00:27:20;;;;;;;2.20;1.20;;;;;;;13.78;73.94;92935.56;5024821;28;20187;-78
2023/01/18 00:29:46;;;;;;;6.63;1.50;;;;;;;13.77;73.85;92959.31;5024699;28;20222;-77
2023/01/18 00:32:15;;;;;;;8.57;1.87;;;;;;;13.80;73.98;92933.44;5026128;28;20614;-77
2023/01/18 00:34:42;;;;;;;3.53;1.40;;;;;;;13.81;73.94;92929.00;5024629;28;20261;-77
2023/01/18 00:37:09;;;;;;;2.27;1.50;;;;;;;13.83;72.70;92914.59;5023387;28;20938;-78
2023/01/18 00:39:36;;;;;;;2.30;1.20;;;;;;;13.85;72.96;92899.44;5026399;28;20617;-78
2023/01/18 00:44:48;;;;;;;2.50;1.40;;;;;;;13.89;73.26;92923.16;5024651;28;20268;-77
2023/01/18 00:47:15;;;;;;;3.47;1.33;;;;;;;13.75;73.44;92925.69;5024591;28;20203;-77
2023/01/18 00:49:43;;;;;;;4.00;1.20;;;;;;;13.83;73.47;92942.56;5025232;28;20884;-76
2023/01/18 00:52:10;;;;;;;2.50;1.27;;;;;;;13.82;73.58;92959.28;5023937;28;20202;-78
2023/01/18 00:54:37;;;;;;;1.70;1.30;;;;;;;13.85;73.86;92922.19;5025923;28;20206;-77
2023/01/18 00:57:04;;;;;;;7.07;1.60;;;;;;;13.80;72.50;92920.38;5025862;28;20199;-78
2023/01/18 00:59:30;;;;;;;6.07;1.20;;;;;;;13.95;72.91;92927.25;5024143;28;20203;-78
2023/01/18 01:01:58;;;;;;;3.37;1.20;;;;;;;13.94;73.29;92923.13;5023247;28;20202;-76
2023/01/18 01:07:09;;;;;;;3.93;1.43;;;;;;;13.91;72.70;92941.94;5023682;28;20340;-77
2023/01/18 01:09:36;;;;;;;1.77;1.20;;;;;;;13.93;73.01;92960.72;5024091;28;20222;-77
2023/01/18 01:26:09;;;;;;;3.93;1.23;;;;;;;13.90;73.25;92979.56;5024169;28;20241;-77
2023/01/18 01:28:37;;;;;;;2.70;1.30;;;;;;;13.92;73.31;92959.16;5023340;28;20187;-78
2023/01/18 01:31:06;;;;;;;8.07;1.40;;;;;;;13.96;72.82;92941.88;5025447;28;20223;-77
2023/01/18 01:33:35;;;;;;;3.33;1.40;;;;;;;13.96;73.85;92962.78;5024635;28;20194;-75
2023/01/18 01:36:04;;;;;;;6.80;1.47;;;;;;;13.99;73.07;92925.66;5023952;28;20249;-73
2023/01/18 01:38:31;;;;;;;4.40;1.10;;;;;;;13.99;73.56;92925.66;5023005;28;20199;-73
2023/01/18 01:41:00;;;;;;;2.87;1.00;;;;;;;13.97;73.05;92909.47;5024908;28;20190;-73
2023/01/18 01:43:42;;;;;;;10.60;1.53;;;;;;;13.97;72.91;92962.47;5023730;28;20187;-74
2023/01/18 01:46:20;;;;;;;2.30;1.07;;;;;;;14.02;72.82;92946.00;5023550;28;20191;-74
2023/01/18 01:48:49;;;;;;;1.67;1.37;;;;;;;14.02;73.01;92978.13;5025604;28;20194;-73
2023/01/18 01:51:19;;;;;;;6.77;1.40;;;;;;;14.08;72.16;92923.97;5023504;28;20215;-76
2023/01/18 01:53:48;;;;;;;4.27;1.40;;;;;;;14.10;71.56;92932.28;5023919;28;20597;-75
2023/01/18 01:56:15;;;;;;;4.67;1.63;;;;;;;14.12;71.71;92958.91;5025579;28;20218;-75
2023/01/18 01:58:43;;;;;;;3.80;1.10;;;;;;;14.10;71.88;92961.81;5023912;28;20199;-74
2023/01/18 02:01:10;;;;;;;2.97;1.20;;;;;;;14.13;71.72;92963.09;5027044;28;20191;-75
2023/01/18 02:03:41;;;;;;;3.50;1.40;;;;;;;14.10;71.77;92925.25;5030029;28;20191;-73
2023/01/18 02:06:18;;;;;;;3.67;1.20;;;;;;;14.06;71.92;92971.25;5026917;28;20219;-73
2023/01/18 02:08:47;;;;;;;2.27;1.20;;;;;;;14.05;72.41;92942.81;5027114;28;20544;-75
2023/01/18 02:11:13;;;;;;;2.63;1.50;;;;;;;14.08;71.79;92953.47;5029691;28;20310;-75
2023/01/18 02:13:41;;;;;;;7.07;1.47;;;;;;;14.07;72.68;92915.34;5028218;28;20645;-79
2023/01/18 02:16:14;;;;;;;4.53;1.60;;;;;;;14.08;71.70;92935.16;5027805;28;20206;-78
2023/01/18 02:18:47;;;;;;;8.83;1.73;;;;;;;14.05;72.54;92948.78;5029181;28;20200;-78
2023/01/18 02:21:18;;;;;;;4.67;1.47;;;;;;;14.04;72.44;92930.81;5027217;28;20183;-78
2023/01/18 02:24:16;;;;;;;3.20;1.37;;;;;;;14.04;72.27;92939.41;5027107;28;20580;-77
2023/01/18 02:26:59;;;;;;;8.13;1.60;;;;;;;14.04;72.87;92956.91;5027302;28;20226;-77
2023/01/18 02:29:38;;;;;;;6.03;1.83;;;;;;;13.96;72.82;92947.09;5028795;28;20198;-78
2023/01/18 02:32:16;;;;;;;7.17;1.43;;;;;;;13.93;73.09;92947.66;5027513;28;20175;-77
2023/01/18 02:34:48;;;;;;;2.83;1.40;;;;;;;13.93;72.76;92952.88;5027116;28;20199;-77
2023/01/18 02:37:25;;;;;;;3.23;1.40;;;;;;;13.94;73.06;92963.03;5027331;28;20210;-78
2023/01/18 02:40:04;;;;;;;3.33;1.50;;;;;;;13.93;73.11;92929.38;5028658;28;20199;-75
2023/01/18 02:48:08;;;;;;;5.83;1.30;;;;;;;13.88;72.89;92935.44;5024124;28;20592;-76
2023/01/18 02:50:36;;;;;;;3.00;1.37;;;;;;;13.86;73.38;92950.59;5025559;28;20235;-76
2023/01/18 02:53:03;;;;;;;5.30;1.53;;;;;;;13.87;73.56;92946.16;5024096;28;20790;-75
2023/01/18 02:55:40;;;;;;;3.70;1.30;;;;;;;13.86;73.64;92963.66;5023730;28;20199;-76
2023/01/18 02:58:12;;;;;;;13.67;1.77;;;;;;;13.86;73.14;92989.00;5022229;28;20199;-76
2023/01/18 03:00:44;;;;;;;6.20;1.70;;;;;;;13.90;73.33;92975.13;5017851;28;20200;-75
2023/01/18 03:03:13;;;;;;;5.90;1.30;;;;;;;13.93;73.00;92992.06;5021719;28;20329;-76
2023/01/18 03:05:41;;;;;;;4.17;1.40;;;;;;;13.89;72.86;92981.38;5025259;28;20241;-75
2023/01/18 03:08:15;;;;;;;5.30;1.43;;;;;;;13.86;73.51;92965.50;5024490;28;20199;-75
2023/01/18 03:10:51;;;;;;;5.37;1.37;;;;;;;13.86;73.27;92963.66;5025275;28;20687;-75
2023/01/18 03:13:28;;;;;;;9.00;1.30;;;;;;;13.87;73.27;92983.50;5027493;28;20187;-75
2023/01/18 03:16:04;;;;;;;4.03;1.70;;;;;;;13.78;72.88;92964.28;5024292;28;20622;-75
2023/01/18 03:18:37;;;;;;;3.10;1.50;;;;;;;13.81;72.51;92982.00;5023802;28;20654;-74
2023/01/18 03:21:07;;;;;;;11.10;1.80;;;;;;;13.85;72.93;92953.50;5026368;28;20653;-75
2023/01/18 03:23:38;;;;;;;6.67;1.60;;;;;;;13.79;72.79;92967.69;5026654;28;20191;-76
2023/01/18 03:26:08;;;;;;;2.53;1.50;;;;;;;13.75;73.25;92971.88;5025293;28;20183;-78
2023/01/18 03:34:22;;;;;;;5.97;1.70;;;;;;;13.92;73.08;92972.22;5025135;28;20575;-77
2023/01/18 03:36:52;;;;;;;3.67;1.50;;;;;;;13.84;72.61;92975.44;5023012;28;20393;-78
2023/01/18 03:39:27;;;;;;;4.73;1.40;;;;;;;13.83;73.21;92950.38;5027632;28;20214;-78
2023/01/18 03:41:57;;;;;;;3.83;1.80;;;;;;;13.93;72.22;92989.44;5026711;28;20279;-79
2023/01/18 03:44:33;;;;;;;3.93;1.40;;;;;;;13.97;72.22;92959.88;5026476;28;20632;-79
2023/01/18 03:47:03;;;;;;;6.67;1.87;;;;;;;13.96;72.64;92963.56;5027081;28;20194;-79
2023/01/18 03:49:58;;;;;;;2.90;1.33;;;;;;;13.87;72.40;92936.50;5027944;28;20219;-80
2023/01/18 03:52:32;;;;;;;5.13;1.33;;;;;;;13.91;71.66;92931.50;5027335;28;20221;-79
2023/01/18 03:55:04;;;;;;;4.63;1.43;;;;;;;13.90;71.96;92932.56;5025712;28;20567;-79
2023/01/18 03:57:36;;;;;;;12.23;1.93;;;;;;;14.01;71.09;92947.03;5028944;28;20191;-79
2023/01/18 04:00:05;;;;;;;2.07;1.20;;;;;;;14.01;70.67;92894.78;5026147;28;20195;-79
2023/01/18 04:02:33;;;;;;;5.97;1.60;;;;;;;14.02;70.68;92928.50;5023991;28;20244;-79
2023/01/18 04:05:02;;;;;;;4.83;1.50;;;;;;;14.04;71.57;92949.09;5027637;28;20223;-79
2023/01/18 04:07:29;;;;;;;4.67;1.40;;;;;;;14.03;71.62;92963.19;5026204;28;20183;-78
2023/01/18 04:09:56;;;;;;;9.00;1.43;;;;;;;14.04;70.71;92912.53;5026187;28;20199;-80
2023/01/18 04:12:23;;;;;;;6.77;1.40;;;;;;;14.04;71.19;92952.47;5027053;28;20229;-79
2023/01/18 04:14:50;;;;;;;4.50;2.00;;;;;;;14.04;71.20;92943.88;5025463;28;20198;-79
2023/01/18 04:17:17;;;;;;;8.37;1.77;;;;;;;14.01;71.26;92932.16;5025164;28;20791;-74
2023/01/18 04:19:45;;;;;;;6.73;1.73;;;;;;;14.03;71.24;93008.38;5026340;28;20226;-73
2023/01/18 04:22:12;;;;;;;6.70;1.37;;;;;;;14.06;71.36;92952.97;5024460;28;20206;-74
2023/01/18 04:24:39;;;;;;;3.63;1.50;;;;;;;14.04;71.29;92977.81;5024850;28;20241;-74
2023/01/18 04:27:06;;;;;;;5.93;1.67;;;;;;;14.03;71.06;92919.56;5025749;28;20191;-73
2023/01/18 04:29:33;;;;;;;11.40;1.63;;;;;;;14.10;70.23;92920.00;5025061;28;20191;-75
2023/01/18 04:32:00;;;;;;;5.50;1.70;;;;;;;14.09;70.98;92931.50;5024570;28;20214;-75
2023/01/18 04:34:26;;;;;;;5.60;1.50;;;;;;;14.10;71.04;92961.03;5026203;28;20202;-73
2023/01/18 04:36:55;;;;;;;4.63;1.40;;;;;;;14.10;71.11;92955.81;5024668;28;20202;-74
2023/01/18 04:39:21;;;;;;;7.10;2.10;;;;;;;14.05;71.23;92964.47;5024173;28;20193;-74
2023/01/18 04:41:48;;;;;;;5.00;1.57;;;;;;;13.95;71.61;92945.53;5025589;28;20226;-76
2023/01/18 04:44:16;;;;;;;4.20;1.40;;;;;;;14.00;71.02;92917.53;5025177;28;20570;-75
2023/01/18 04:46:43;;;;;;;6.80;2.07;;;;;;;13.88;72.20;92950.34;5023855;28;20210;-73
2023/01/18 04:49:14;;;;;;;3.73;1.70;;;;;;;13.91;72.86;92895.69;5024954;28;20195;-72
2023/01/18 04:51:41;;;;;;;5.43;1.77;;;;;;;13.92;73.09;92933.03;5025568;28;20211;-72
2023/01/18 04:54:10;;;;;;;6.47;1.60;;;;;;;13.87;72.81;92940.94;5023865;28;20191;-72
2023/01/18 04:56:37;;;;;;;7.87;2.20;;;;;;;13.91;72.26;92971.44;5024231;28;20597;-75
2023/01/18 04:59:04;;;;;;;8.37;1.63;;;;;;;13.92;72.20;92928.59;5024793;28;20206;-74
2023/01/18 05:01:32;;;;;;;10.07;1.70;;;;;;;13.94;71.10;92918.63;5023281;28;20239;-75
2023/01/18 05:04:00;;;;;;;7.80;1.53;;;;;;;13.97;72.17;92928.53;5023947;28;20732;-76
2023/01/18 05:06:27;;;;;;;7.23;1.50;;;;;;;13.93;72.01;92945.84;5025576;28;20277;-77
2023/01/18 05:08:54;;;;;;;6.53;1.73;;;;;;;13.99;71.59;92943.94;5023961;28;20206;-76
2023/01/18 05:11:22;;;;;;;4.37;1.50;;;;;;;13.99;70.64;92926.44;5024653;28;20214;-76
2023/01/18 05:13:49;;;;;;;11.00;1.90;;;;;;;14.08;70.86;92884.78;5026365;28;20625;-75
2023/01/18 05:16:18;;;;;;;6.10;1.70;;;;;;;14.12;71.19;92948.47;5024719;28;20280;-82
2023/01/18 05:18:45;;;;;;;6.13;1.40;;;;;;;14.13;70.77;92879.47;5024246;28;20199;-77
2023/01/18 05:21:13;;;;;;;7.47;1.63;;;;;;;14.15;70.15;92963.56;5027186;28;20209;-83
2023/01/18 05:23:40;;;;;;;7.07;1.50;;;;;;;14.21;69.82;92915.41;5023646;28;20198;-75
2023/01/18 05:26:13;;;;;;;5.53;1.77;;;;;;;14.29;69.18;92916.59;5023032;28;20225;-74
2023/01/18 05:28:45;;;;;;;5.47;1.60;;;;;;;14.31;70.19;92987.69;5025032;28;20205;-75
2023/01/18 05:31:12;;;;;;;6.83;2.20;;;;;;;14.35;69.42;92955.50;5023425;28;20218;-75
2023/01/18 05:33:39;;;;;;;10.63;2.00;;;;;;;14.36;69.10;92924.91;5025789;28;20210;-75
2023/01/18 05:36:07;;;;;;;8.13;1.60;;;;;;;14.29;69.05;92890.47;5028886;28;20202;-75
2023/01/18 05:38:35;;;;;;;6.60;1.80;;;;;;;14.40;69.45;92939.72;5027595;28;20695;-74
2023/01/18 05:41:02;;;;;;;6.20;1.60;;;;;;;14.36;69.75;92930.91;5027258;28;20207;-74
2023/01/18 05:43:29;;;;;;;8.40;1.90;;;;;;;14.31;70.57;92946.66;5029521;28;20568;-76
2023/01/18 05:45:57;;;;;;;6.00;1.70;;;;;;;14.28;70.38;92934.16;5027585;28;20203;-78
2023/01/18 05:48:24;;;;;;;6.30;1.70;;;;;;;14.21;71.38;92938.94;5027042;28;20194;-75
2023/01/18 05:50:52;;;;;;;3.90;1.70;;;;;;;14.09;71.02;92913.22;5029451;28;20191;-73
2023/01/18 05:53:22;;;;;;;6.73;1.70;;;;;;;14.24;69.47;92943.59;5024352;28;20198;-73
2023/01/18 05:55:56;;;;;;;6.27;1.80;;;;;;;14.28;70.22;92899.41;5027188;28;20203;-71
2023/01/18 05:58:23;;;;;;;5.80;1.63;;;;;;;14.32;69.92;92929.91;5028584;28;20201;-72
2023/01/18 06:00:50;;;;;;;6.63;1.60;;;;;;;14.34;69.42;92930.44;5026064;28;20202;-72
2023/01/18 06:03:18;;;;;;;7.27;1.60;;;;;;;14.37;69.82;92965.69;5026581;28;20195;-72
2023/01/18 06:05:46;;;;;;;8.43;1.63;;;;;;;14.34;70.47;92899.06;5028792;28;20234;-76
2023/01/18 06:08:13;;;;;;;15.03;2.73;;;;;;;14.33;69.64;92918.41;5026275;28;20579;-74
2023/01/18 06:10:40;;;;;;;5.30;1.80;;;;;;;14.29;70.76;92967.03;5024242;28;20207;-74
2023/01/18 06:13:07;;;;;;;4.83;1.93;;;;;;;14.30;70.42;92955.53;5030110;28;20226;-73
2023/01/18 06:15:34;;;;;;;6.20;1.77;;;;;;;14.28;70.96;92964.72;5027066;28;20197;-75
2023/01/18 06:18:00;;;;;;;6.70;1.80;;;;;;;14.29;70.46;92976.72;5026143;28;20195;-74
2023/01/18 06:20:29;;;;;;;5.30;1.50;;;;;;;14.27;71.04;92955.31;5028628;28;20187;-71
2023/01/18 06:22:56;;;;;;;5.20;1.87;;;;;;;14.19;71.28;92947.06;5026486;28;20218;-72
2023/01/18 06:25:24;;;;;;;4.93;1.70;;;;;;;14.23;71.59;92983.09;5026386;28;20191;-71
2023/01/18 06:27:50;;;;;;;4.23;1.50;;;;;;;14.27;71.20;92968.38;5025893;28;20626;-72
2023/01/18 06:30:18;;;;;;;3.87;1.83;;;;;;;14.18;71.25;92957.78;5026978;28;20191;-71
2023/01/18 06:32:47;;;;;;;5.40;1.60;;;;;;;14.28;70.69;92965.50;5026134;28;20226;-71
2023/01/18 06:35:14;;;;;;;5.97;1.87;;;;;;;14.25;72.04;92975.72;5028256;28;20210;-71
2023/01/18 06:37:42;;;;;;;9.40;1.90;;;;;;;14.27;71.90;92968.38;5026094;28;20297;-72
2023/01/18 06:40:10;;;;;;;10.97;1.60;;;;;;;14.27;71.20;92965.78;5026390;28;20202;-71
2023/01/18 06:42:37;;;;;;;5.67;1.70;;;;;;;14.35;70.66;92941.63;5028240;28;20187;-72
2023/01/18 06:45:05;;;;;;;5.77;2.00;;;;;;;14.32;71.84;92932.53;5025503;28;20257;-72
2023/01/18 06:47:31;;;;;;;8.57;2.23;;;;;;;14.31;71.58;92964.94;5025737;28;20198;-71
2023/01/18 06:49:58;;;;;;;8.17;1.93;;;;;;;14.31;71.94;92932.81;5027468;28;20199;-72
2023/01/18 06:52:25;;;;;;;5.67;1.80;;;;;;;14.27;72.14;92955.31;5025442;28;20222;-70
2023/01/18 06:54:53;;;;;;;5.77;1.67;;;;;;;14.25;72.34;92989.56;5025509;28;20210;-71
2023/01/18 06:57:20;;;;;;;3.93;1.57;;;;;;;14.26;71.83;92938.09;5027708;28;20566;-73
2023/01/18 06:59:47;;;;;;;4.30;1.73;;;;;;;14.29;72.30;92951.34;5026412;28;20190;-74
2023/01/18 07:02:15;;;;;;;12.30;2.00;;;;;;;14.29;72.08;92945.34;5025926;28;20191;-72
2023/01/18 07:04:44;;;;;;;8.10;1.83;;;;;;;14.29;72.48;92947.97;5027159;28;20199;-71
2023/01/18 07:07:11;;;;;;;7.53;1.97;;;;;;;14.32;71.84;92961.28;5026642;28;20210;-71
2023/01/18 07:09:38;;;;;;;9.43;1.87;;;;;;;14.32;72.74;93010.94;5025459;28;20720;-71
2023/01/18 07:12:07;;;;;;;7.33;1.70;;;;;;;14.31;71.94;93056.41;5027242;28;21614;-71
2023/01/18 07:14:34;;;;;;;6.47;1.57;;;;;;;14.33;71.50;92954.22;5026903;28;20623;-72
2023/01/18 07:17:00;;;;;;;4.40;1.63;;;;;;;14.28;71.30;92949.81;5025302;28;20736;-72
2023/01/18 07:19:27;;;;;;;8.47;2.03;;;;;;;14.42;71.24;92970.81;5026601;28;20203;-72
2023/01/18 07:21:54;;;;;;;8.47;1.77;;;;;;;14.43;71.21;92999.28;5026870;28;20198;-73
2023/01/18 07:24:22;;;;;;;9.77;1.70;;;;;;;14.33;71.22;92988.19;5025045;28;20198;-72
2023/01/18 07:26:49;;;;;;;10.23;1.90;;;;;;;14.45;71.42;92960.59;5026197;28;20253;-72
2023/01/18 07:29:17;;;;;;;7.33;2.07;;;;;;;14.45;71.71;92960.59;5026065;28;20195;-72
2023/01/18 07:31:44;;;;;;;8.17;1.90;;;;;;;14.43;71.69;92980.97;5025031;28;20240;-72
2023/01/18 07:34:10;;;;;;;8.60;2.00;;;;;;;14.44;71.02;92995.63;5024637;28;20218;-72
2023/01/18 07:36:38;;;;;;;6.67;2.17;;;;;;;14.50;70.88;92949.28;5024906;28;20195;-71
2023/01/18 07:39:05;;;;;;;14.33;2.30;;;;;;;14.55;71.08;92962.25;5023577;28;20292;-72
2023/01/18 07:41:32;;;;;;;5.30;1.70;;;;;;;14.58;71.00;92972.94;5025591;28;20203;-71
2023/01/18 07:43:59;;;;;;;7.93;1.80;;;;;;;14.42;71.23;92987.28;5025862;28;20625;-73
2023/01/18 07:46:27;;;;;;;7.57;2.00;;;;;;;14.56;70.83;93005.66;5024826;28;20203;-72
2023/01/18 07:48:54;;;;;;;9.00;1.73;;;;;;;14.61;70.23;92982.81;5026023;28;20229;-72
2023/01/18 07:51:22;;;;;;;10.23;2.10;;;;;;;14.60;70.25;92989.09;5026608;28;20202;-73
2023/01/18 07:53:53;;;;;;;7.23;1.97;;;;;;;14.68;70.06;93009.41;5024856;28;20203;-71
2023/01/18 07:56:21;;;;;;;6.67;2.20;;;;;;;14.70;70.40;93011.72;5024908;28;20187;-72
2023/01/18 07:58:48;;;;;;;8.97;1.80;;;;;;;14.69;69.85;93041.53;5026873;28;20226;-72
2023/01/18 08:01:17;;;;;;;6.90;2.17;;;;;;;14.70;70.16;93027.41;5024652;28;20666;-74
2023/01/18 08:03:47;;;;;;;8.37;1.60;;;;;;;14.61;70.54;93014.19;5025094;28;20208;-75
2023/01/18 08:06:15;;;;;;;6.27;1.60;;;;;;;14.76;70.57;93047.22;5026436;28;20304;-75
2023/01/18 08:08:43;;;;;;;4.10;1.77;;;;;;;14.74;70.78;93073.66;5024506;28;20195;-73
2023/01/18 08:11:10;;;;;;;5.83;1.90;;;;;;;14.77;70.19;93077.53;5024499;28;20244;-74
2023/01/18 08:13:38;;;;;;;8.13;1.67;;;;;;;14.82;70.37;93079.28;5027006;28;20218;-74
2023/01/18 08:16:07;;;;;;;13.50;1.93;;;;;;;14.77;70.25;93078.28;5024519;28;20194;-73
2023/01/18 08:18:34;;;;;;;3.23;1.57;;;;;;;14.80;70.73;93102.34;5024308;28;20281;-72
2023/01/18 08:21:03;;;;;;;20.77;1.93;;;;;;;14.78;70.26;93081.69;5027132;28;20195;-84
2023/01/18 08:23:30;;;;;;;7.77;1.50;;;;;;;14.83;70.45;93107.03;5027379;28;20195;-79
2023/01/18 08:26:01;;;;;;;8.90;2.20;;;;;;;14.82;70.66;93108.84;5024949;28;21591;-78
2023/01/18 08:28:28;;;;;;;8.60;2.13;;;;;;;14.80;70.75;93116.22;5026582;28;20214;-80
2023/01/18 08:31:06;;;;;;;9.10;2.30;;;;;;;14.68;71.05;93098.31;5026421;28;20199;-83
2023/01/18 08:33:37;;;;;;;9.43;1.90;;;;;;;14.80;70.43;93168.53;5024825;28;20237;-78
2023/01/18 08:36:09;;;;;;;5.27;1.80;;;;;;;14.81;70.50;93104.66;5027866;28;20206;-78
2023/01/18 08:38:38;;;;;;;10.60;2.30;;;;;;;14.81;70.71;93125.59;5024473;28;20553;-78
2023/01/18 08:41:05;;;;;;;4.37;1.57;;;;;;;14.80;71.31;93110.97;5023730;28;20210;-77
2023/01/18 08:43:32;;;;;;;4.77;1.80;;;;;;;14.83;71.49;93093.94;5024455;28;20693;-77
2023/01/18 08:45:59;;;;;;;6.07;1.93;;;;;;;14.84;71.50;93100.72;5024379;28;20213;-79
2023/01/18 08:48:26;;;;;;;6.40;1.90;;;;;;;14.79;71.68;93180.03;5024726;28;20290;-78
2023/01/18 08:50:53;;;;;;;6.80;1.80;;;;;;;14.76;71.56;93136.91;5026701;28;20194;-87
2023/01/18 08:53:21;;;;;;;7.90;2.00;;;;;;;14.75;72.12;93145.81;5026753;28;20220;-82
2023/01/18 08:55:48;;;;;;;15.27;2.17;;;;;;;14.75;71.67;93164.09;5027647;28;20585;-82
2023/01/18 08:58:15;;;;;;;8.10;2.13;;;;;;;14.75;71.45;93179.81;5030579;28;20195;-79
2023/01/18 09:00:41;;;;;;;7.07;1.90;;;;;;;14.67;71.56;93149.03;5023787;28;20198;-81
2023/01/18 09:03:08;;;;;;;4.07;1.93;;;;;;;14.79;71.46;93174.78;5023813;28;20191;-81
2023/01/18 09:05:36;;;;;;;7.80;1.83;;;;;;;14.82;71.62;93184.69;5026784;28;21342;-83
2023/01/18 09:08:03;;;;;;;10.00;1.77;;;;;;;14.87;71.24;93149.84;5029641;28;20229;-83
2023/01/18 09:10:31;;;;;;;13.80;2.23;;;;;;;14.88;71.26;93212.34;5030916;28;20245;-83
2023/01/18 09:12:58;;;;;;;7.30;2.10;;;;;;;14.87;72.03;93194.31;5030890;28;20219;-81
2023/01/18 09:15:25;;;;;;;12.30;2.30;;;;;;;14.86;71.72;93187.53;5031406;28;20199;-82
2023/01/18 09:17:52;;;;;;;6.97;2.10;;;;;;;14.87;71.58;93194.31;5011830;28;20274;-81
2023/01/18 09:20:19;;;;;;;6.03;1.77;;;;;;;14.88;72.06;93183.59;5023985;28;20191;-83
2023/01/18 09:22:47;;;;;;;5.47;1.83;;;;;;;14.83;71.96;93193.31;5031092;28;20206;-82
2023/01/18 09:25:16;;;;;;;8.30;2.10;;;;;;;14.83;72.50;93199.34;5031390;28;20241;-82
2023/01/18 09:27:45;;;;;;;7.80;2.20;;;;;;;14.84;72.85;93232.28;5031320;28;20195;-82
2023/01/18 09:30:14;;;;;;;9.73;1.70;;;;;;;14.85;72.50;93215.53;5031495;28;20264;-82
2023/01/18 09:32:41;;;;;;;15.10;2.60;;;;;;;14.89;72.68;93207.91;5031104;28;21023;-84
2023/01/18 09:35:09;;;;;;;8.73;2.00;;;;;;;14.93;72.32;93208.88;5030165;28;20211;-77
2023/01/18 09:37:36;;;;;;;7.10;1.90;;;;;;;14.90;72.73;93201.59;5029357;28;20670;-78
2023/01/18 09:40:03;;;;;;;7.10;2.03;;;;;;;14.90;72.63;93228.53;5029834;28;20191;-77
2023/01/18 09:42:37;;;;;;;9.67;2.30;;;;;;;14.99;72.47;93215.63;5030397;28;20264;-78
2023/01/18 09:45:07;;;;;;;8.27;2.00;;;;;;;15.05;72.36;93248.53;5030486;28;20195;-83
2023/01/18 09:47:39;;;;;;;8.27;1.67;;;;;;;14.98;72.10;93178.22;5026635;28;20203;-82
2023/01/18 09:50:14;;;;;;;9.40;1.90;;;;;;;15.02;71.74;93217.69;5031000;28;20190;-82
2023/01/18 09:52:52;;;;;;;8.00;1.90;;;;;;;15.07;71.87;93194.06;5030752;28;20218;-83
2023/01/18 09:55:26;;;;;;;9.13;2.47;;;;;;;15.12;71.40;93213.09;5030986;28;20619;-80
2023/01/18 09:58:18;;;;;;;11.63;2.03;;;;;;;15.09;71.58;93171.03;5030250;28;20190;-80
2023/01/18 10:00:48;;;;;;;6.70;2.30;;;;;;;15.07;71.52;93152.19;5031031;28;20285;-80
2023/01/18 10:03:19;;;;;;;8.83;2.10;;;;;;;15.30;70.89;93174.91;5026846;28;20661;-81
2023/01/18 10:05:56;;;;;;;9.77;2.87;;;;;;;15.47;70.59;93204.03;5030554;28;20722;-81
2023/01/18 10:08:28;;;;;;;10.57;1.90;;;;;;;16.03;68.23;93183.00;5016111;28;20259;-78
2023/01/18 10:11:03;;;;;;;10.03;2.90;;;;;;;16.83;66.44;93188.66;5030360;28;20195;-78
2023/01/18 10:13:42;;;;;;;7.23;2.03;;;;;;;17.44;63.08;93179.53;5029291;28;20207;-79
2023/01/18 10:16:15;;;;;;;8.67;1.70;;;;;;;18.00;60.89;93206.16;5030123;28;20202;-79
2023/01/18 10:18:46;;;;;;;6.90;1.80;;;;;;;18.24;59.49;93168.25;5029042;28;20599;-80
2023/01/18 10:21:23;;;;;;;6.10;1.97;;;;;;;18.83;58.10;93204.59;5027334;28;20202;-79
2023/01/18 10:24:15;;;;;;;10.97;2.00;;;;;;;18.91;57.81;93167.00;5026425;28;20187;-79
2023/01/18 10:26:43;;;;;;;8.73;2.10;;;;;;;19.21;56.67;93171.41;5032711;28;20198;-79
2023/01/18 10:29:16;;;;;;;12.60;2.50;;;;;;;19.33;55.95;93196.38;5033736;28;20234;-79
2023/01/18 10:31:56;;;;;;;7.78;1.75;;;;;;;19.58;54.96;93193.81;5034093;28;20553;-79
2023/01/18 10:34:26;;;;;;;6.68;1.90;;;;;;;19.86;54.41;93220.63;5030843;28;20702;-76
2023/01/18 10:36:57;;;;;;;7.10;2.10;;;;;;;19.81;53.98;93204.97;5035620;28;20872;-80
2023/01/18 10:39:32;;;;;;;9.55;2.00;;;;;;;19.92;53.38;93200.94;5030286;28;20190;-79
2023/01/18 10:42:03;;;;;;;7.30;1.75;;;;;;;19.92;53.19;93206.22;5033399;28;20571;-79
2023/01/18 10:44:30;;;;;;;8.57;1.95;;;;;;;19.85;54.02;93229.66;5032493;28;20191;-78
2023/01/18 10:47:00;;;;;;;4.40;1.70;;;;;;;20.06;53.34;93243.75;5032803;28;20558;-78
2023/01/18 10:49:35;;;;;;;10.95;2.10;;;;;;;20.03;53.25;93231.19;5030167;28;20206;-78
2023/01/18 10:52:23;;;;;;;5.82;1.75;;;;;;;19.82;53.14;93214.44;5032354;28;20677;-78
2023/01/18 10:54:52;;;;;;;4.07;1.85;;;;;;;19.79;53.40;93244.06;5031053;28;20179;-78
2023/01/18 10:57:24;;;;;;;9.77;2.30;;;;;;;20.16;53.31;93254.00;5032790;28;20281;-78
2023/01/18 10:59:52;;;;;;;9.18;2.00;;;;;;;20.03;52.84;93259.44;5032046;28;20191;-82
2023/01/18 11:02:28;;;;;;;7.53;1.77;;;;;;;19.95;53.06;93234.59;5032702;28;20225;-75
2023/01/18 11:05:00;;;;;;;11.25;2.45;;;;;;;20.02;52.91;93226.22;5032166;28;20234;-75
2023/01/18 11:07:28;;;;;;;5.82;2.20;;;;;;;19.93;53.00;93236.00;5029923;28;20191;-75
2023/01/18 11:09:58;;;;;;;8.38;2.30;;;;;;;20.12;52.67;93220.63;5032518;28;20186;-75
2023/01/18 11:12:33;;;;;;;5.55;1.92;;;;;;;20.10;52.66;93265.00;5029999;28;20218;-75
2023/01/18 11:15:22;;;;;;;10.13;2.25;;;;;;;19.94;53.19;93214.56;5031714;28;20197;-75
2023/01/18 11:18:18;;;;;;;11.32;2.58;;;;;;;20.20;52.49;93231.16;5033307;28;20229;-76
2023/01/18 11:20:48;;;;;;;12.00;2.80;;;;;;;20.29;51.93;93239.09;5027109;28;20642;-80
2023/01/18 11:23:35;;;;;;;8.90;2.38;;;;;;;19.96;52.72;93222.19;5033386;28;20179;-79
2023/01/18 11:26:04;;;;;;;9.80;2.33;;;;;;;19.94;52.07;93217.22;5033043;28;20195;-80
2023/01/18 11:28:38;;;;;;;6.47;2.05;;;;;;;20.19;51.81;93205.88;5032222;28;20703;-79
2023/01/18 11:31:11;;;;;;;10.55;2.80;;;;;;;20.42;50.85;93208.34;5032165;28;20198;-76
2023/01/18 11:33:48;;;;;;;12.77;2.20;;;;;;;20.16;51.72;93214.44;5031352;28;20242;-75
2023/01/18 11:36:17;;;;;;;8.60;2.30;;;;;;;20.43;51.11;93233.66;5032148;28;20214;-75
2023/01/18 11:38:45;;;;;;;10.25;2.30;;;;;;;20.27;51.08;93226.22;5029335;28;20289;-76
2023/01/18 11:41:18;;;;;;;11.82;2.40;;;;;;;20.36;49.61;93211.16;5030644;28;20191;-76
2023/01/18 11:44:04;;;;;;;8.45;2.03;;;;;;;19.94;50.78;93211.94;5028316;28;20191;-75
2023/01/18 11:46:45;;;;;;;12.18;3.33;;;;;;;20.39;51.26;93236.16;5030079;28;20215;-75
2023/01/18 11:49:23;;;;;;;11.18;2.13;;;;;;;20.50;50.71;93269.03;5030693;28;20209;-76
2023/01/18 11:51:55;;;;;;;9.77;2.67;;;;;;;20.38;50.59;93219.53;5029656;28;20202;-76
2023/01/18 11:54:30;;;;;;;8.48;2.00;;;;;;;20.65;49.72;93244.00;5031297;28;20298;-76
2023/01/18 11:57:01;;;;;;;8.82;2.50;;;;;;;20.69;49.85;93231.75;5031473;28;20233;-79
2023/01/18 11:59:29;;;;;;;6.05;2.47;;;;;;;20.53;49.54;93249.94;5026362;28;20214;-77
2023/01/18 12:02:18;;;;;;;15.50;2.30;;;;;;;20.14;49.67;93258.81;5031206;28;20223;-75
2023/01/18 12:05:09;;;;;;;8.32;2.53;;;;;;;20.07;49.85;93252.44;5028647;28;20638;-74
2023/01/18 12:07:47;;;;;;;9.40;2.65;;;;;;;20.30;49.99;93248.59;5029972;28;20191;-74
2023/01/18 12:10:21;;;;;;;11.88;2.28;;;;;;;20.58;49.48;93241.06;5028809;28;20202;-75
2023/01/18 12:13:15;;;;;;;14.18;2.25;;;;;;;20.79;48.27;93240.09;5028958;28;20278;-75
2023/01/18 12:15:57;;;;;;;12.23;2.83;;;;;;;20.95;47.89;93245.66;5030362;28;20248;-76